This is the latest recevied weather packets stored in our database for station/object CE4TQY-10. If no packets are shown the sender has not sent any weather packets the latest 10 day(s).
| Time | Temp. | Humidity | Pressure | Rain* | Wind** | Luminosity | Snow |
|---|---|---|---|---|---|---|---|
| 1777514280 | 14.44° C | 81% | 1012.4 hPa | - | - | - | - |
| 1777513378 | 15° C | 80% | 1013 hPa | - | - | - | - |
| 1777511612 | 15.56° C | 78% | 1014.3 hPa | - | - | - | - |
| 1777511576 | 15.56° C | 78% | 1014.3 hPa | - | - | - | - |
| 1777510675 | 15.56° C | 76% | 1016.4 hPa | - | - | - | - |
| 1777502564 | 18.33° C | 63% | 1016.3 hPa | - | - | - | - |
| 1777501663 | 18.89° C | 60% | 1016.2 hPa | - | - | - | - |
| 1777500762 | 18.89° C | 61% | 1016.2 hPa | - | - | - | - |
| 1777498059 | 20.56° C | 57% | 1016.3 hPa | - | - | - | - |
| 1777496258 | 20.56° C | 56% | 1016.2 hPa | - | - | - | - |
| 1777494455 | 22.22° C | 50% | 1016.2 hPa | - | - | - | - |
| 1777492653 | 22.22° C | 47% | 1016.3 hPa | - | - | - | - |
| 1777490851 | 22.78° C | 46% | 1016.6 hPa | - | - | - | - |
| 1777489095 | 22.78° C | 47% | 1016.7 hPa | - | - | - | - |
| 1777487248 | 22.78° C | 47% | 1016.9 hPa | - | - | - | - |
| 1777486347 | 22.78° C | 45% | 1016.8 hPa | - | - | - | - |
| 1777485446 | 22.22° C | 45% | 1017.1 hPa | - | - | - | - |
| 1777483644 | 21.67° C | 47% | 1017.5 hPa | - | - | - | - |
| 1777482743 | 21.67° C | 50% | 1017.7 hPa | - | - | - | - |
| 1777481842 | 22.22° C | 50% | 1017.9 hPa | - | - | - | - |
| 1777480040 | 21.67° C | 51% | 1018.3 hPa | - | - | - | - |
| 1777477338 | 25.56° C | 44% | 1018.8 hPa | - | - | - | - |
| 1777476437 | 24.44° C | 46% | 1019 hPa | - | - | - | - |
| 1777471932 | 23.89° C | 49% | 1019.7 hPa | - | - | - | - |
| 1777471031 | 23.33° C | 50% | 1019.9 hPa | - | - | - | - |
* Rain since midnight (hover to see other rain measurements)
** Current wind speed in m/s (hover to see current wind gust speed)